Time;durP1;ratioP1;P1;durP2;ratioP2;P2;SDS_P1;SDS_P2;PMS_P1;PMS_P2;Temp;Humidity;BMP_temperature;BMP_pressure;BME280_temperature;BME280_humidity;BME280_pressure;Samples;Min_cycle;Max_cycle;Signal;HPM_P1;HPM_P2
2021/07/21 00:02:34;;;;;;;;;17.25;16.25;;;;;;;;8894048;40;10939;-59
2021/07/21 00:08:37;;;;;;;;;25.33;24.33;;;;;;;;8893861;40;10733;-59
2021/07/21 00:14:39;;;;;;;;;24.75;22.50;;;;;;;;8893036;40;10920;-61
2021/07/21 00:20:41;;;;;;;;;21.50;19.75;;;;;;;;8894689;40;10884;-59
2021/07/21 00:26:44;;;;;;;;;21.67;20.33;;;;;;;;8892767;40;10361;-60
2021/07/21 00:32:46;;;;;;;;;21.50;20.25;;;;;;;;8893305;40;11110;-59
2021/07/21 00:38:48;;;;;;;;;18.00;17.25;;;;;;;;8893336;40;10813;-58
2021/07/21 00:44:53;;;;;;;;;21.00;20.00;;;;;;;;8893974;40;10884;-59
2021/07/21 00:50:56;;;;;;;;;18.50;17.25;;;;;;;;8895912;40;10674;-60
2021/07/21 00:57:01;;;;;;;;;25.50;18.25;;;;;;;;8896270;40;10857;-59
2021/07/21 01:03:03;;;;;;;;;16.50;15.75;;;;;;;;8897508;40;10763;-61
2021/07/21 01:09:09;;;;;;;;;14.25;13.25;;;;;;;;8905022;40;10732;-59
2021/07/21 01:15:36;;;;;;;;;19.75;16.25;;;;;;;;8896505;40;10966;-59
2021/07/21 01:22:16;;;;;;;;;17.50;16.75;;;;;;;;8903397;40;11003;-59
2021/07/21 01:28:27;;;;;;;;;14.25;13.50;;;;;;;;8895846;40;11235;-60
2021/07/21 01:34:32;;;;;;;;;14.67;14.67;;;;;;;;8896958;40;10486;-59
2021/07/21 01:40:39;;;;;;;;;15.75;13.75;;;;;;;;8895583;40;10788;-59
2021/07/21 01:46:43;;;;;;;;;13.50;13.50;;;;;;;;8896437;40;10739;-59
2021/07/21 01:52:48;;;;;;;;;13.00;13.00;;;;;;;;8903458;40;10889;-59
2021/07/21 01:58:55;;;;;;;;;16.00;16.00;;;;;;;;8903835;40;10958;-59
2021/07/21 02:05:06;;;;;;;;;16.25;15.50;;;;;;;;8894492;40;10800;-60
2021/07/21 02:11:09;;;;;;;;;13.75;13.75;;;;;;;;8894702;40;10816;-60
2021/07/21 02:17:14;;;;;;;;;15.33;14.00;;;;;;;;8895353;40;10515;-60
2021/07/21 02:23:24;;;;;;;;;14.75;14.25;;;;;;;;8894940;40;10777;-60
2021/07/21 02:30:07;;;;;;;;;15.75;13.00;;;;;;;;8868946;40;11045;-59
2021/07/21 02:36:10;;;;;;;;;15.50;15.50;;;;;;;;8894811;40;10753;-60
2021/07/21 02:42:15;;;;;;;;;12.50;12.25;;;;;;;;8895588;40;10590;-59
2021/07/21 02:48:20;;;;;;;;;14.25;13.75;;;;;;;;8893595;40;10683;-59
2021/07/21 02:54:37;;;;;;;;;15.25;14.25;;;;;;;;8902562;40;10893;-59
2021/07/21 03:00:42;;;;;;;;;14.75;14.75;;;;;;;;8902298;40;10792;-60
2021/07/21 03:06:54;;;;;;;;;15.50;10.75;;;;;;;;8901183;40;11015;-59
2021/07/21 03:13:01;;;;;;;;;10.00;9.50;;;;;;;;8894961;40;11326;-61
2021/07/21 03:19:09;;;;;;;;;15.25;15.25;;;;;;;;8901627;40;10641;-61
2021/07/21 03:25:22;;;;;;;;;11.00;11.00;;;;;;;;8645787;40;10000389;-61
2021/07/21 03:31:25;;;;;;;;;13.25;13.25;;;;;;;;8901341;40;11531;-59
2021/07/21 03:37:32;;;;;;;;;19.00;14.25;;;;;;;;8892922;40;10707;-61
2021/07/21 03:43:37;;;;;;;;;14.75;14.75;;;;;;;;8901379;40;10627;-60
2021/07/21 03:49:47;;;;;;;;;16.50;12.50;;;;;;;;8893852;40;10811;-60
2021/07/21 03:55:55;;;;;;;;;14.00;11.75;;;;;;;;8894171;40;10527;-58
2021/07/21 04:02:18;;;;;;;;;13.50;11.75;;;;;;;;9988233;22;11214;-60
2021/07/21 04:08:23;;;;;;;;;15.50;14.00;;;;;;;;8843287;40;10950;-60
2021/07/21 04:14:26;;;;;;;;;16.75;14.50;;;;;;;;8837771;40;10977;-61
2021/07/21 04:20:50;;;;;;;;;11.50;11.50;;;;;;;;8841279;40;11245;-61
2021/07/21 04:26:53;;;;;;;;;14.75;13.00;;;;;;;;8850875;40;10689;-61
2021/07/21 04:32:58;;;;;;;;;17.50;15.50;;;;;;;;8842034;40;10752;-61
2021/07/21 04:39:07;;;;;;;;;14.25;14.25;;;;;;;;8842343;40;10741;-60
2021/07/21 04:45:28;;;;;;;;;14.75;13.00;;;;;;;;8851713;40;10630;-60
2021/07/21 04:51:33;;;;;;;;;14.00;13.25;;;;;;;;8849400;40;10677;-60
2021/07/21 04:57:45;;;;;;;;;15.50;15.50;;;;;;;;8840477;40;10737;-60
2021/07/21 05:03:57;;;;;;;;;18.25;17.00;;;;;;;;8851971;40;10609;-61
2021/07/21 05:10:18;;;;;;;;;16.75;15.50;;;;;;;;8850009;40;10759;-61
2021/07/21 05:16:22;;;;;;;;;16.50;15.25;;;;;;;;8841636;40;10819;-61
2021/07/21 05:22:24;;;;;;;;;24.50;18.00;;;;;;;;8846162;40;10619;-59
2021/07/21 05:28:28;;;;;;;;;18.50;17.00;;;;;;;;8840619;40;10602;-59
2021/07/21 05:34:38;;;;;;;;;21.75;16.75;;;;;;;;8816283;40;10695;-59
2021/07/21 05:41:05;;;;;;;;;19.75;18.00;;;;;;;;8846578;40;10599;-59
2021/07/21 05:47:19;;;;;;;;;23.50;23.25;;;;;;;;8841094;40;11661;-58
2021/07/21 05:53:22;;;;;;;;;15.00;10.25;;;;;;;;8839562;40;10791;-59
2021/07/21 05:59:26;;;;;;;;;41.25;36.25;;;;;;;;8827815;40;10928;-59
2021/07/21 06:05:28;;;;;;;;;19.50;18.00;;;;;;;;8823356;40;10601;-59
2021/07/21 06:11:42;;;;;;;;;24.75;21.25;;;;;;;;8826471;40;10714;-59
2021/07/21 06:17:46;;;;;;;;;18.75;18.75;;;;;;;;8835837;40;10662;-59
2021/07/21 06:23:51;;;;;;;;;23.75;23.75;;;;;;;;8833396;40;11852;-59
2021/07/21 06:29:53;;;;;;;;;22.25;21.50;;;;;;;;8844284;40;10594;-59
2021/07/21 06:35:57;;;;;;;;;27.25;24.50;;;;;;;;8838451;40;10706;-59
2021/07/21 06:42:07;;;;;;;;;35.25;33.75;;;;;;;;8824317;40;11041;-60
2021/07/21 06:48:09;;;;;;;;;33.50;31.00;;;;;;;;8842793;40;10892;-59
2021/07/21 06:54:17;;;;;;;;;24.50;23.75;;;;;;;;8834474;40;10515;-59
2021/07/21 07:00:38;;;;;;;;;25.25;24.00;;;;;;;;8838505;40;10496;-59
2021/07/21 07:06:40;;;;;;;;;21.25;19.75;;;;;;;;8829702;40;10769;-60
2021/07/21 07:13:04;;;;;;;;;22.00;22.00;;;;;;;;8835641;40;10503;-59
2021/07/21 07:19:07;;;;;;;;;25.75;21.50;;;;;;;;8832285;40;10506;-60
2021/07/21 07:25:09;;;;;;;;;19.50;19.50;;;;;;;;8856391;40;10504;-60
2021/07/21 07:31:11;;;;;;;;;21.00;20.50;;;;;;;;8856784;40;10530;-60
2021/07/21 07:37:14;;;;;;;;;26.75;23.75;;;;;;;;8849535;40;10644;-60
2021/07/21 07:43:16;;;;;;;;;19.00;19.00;;;;;;;;8834547;40;10460;-60
2021/07/21 07:49:20;;;;;;;;;23.50;22.75;;;;;;;;8823187;40;10553;-60
2021/07/21 07:55:22;;;;;;;;;24.00;20.25;;;;;;;;8825673;40;11098;-59
2021/07/21 08:01:25;;;;;;;;;19.50;18.75;;;;;;;;8840470;40;10520;-60
2021/07/21 08:07:32;;;;;;;;;25.25;23.25;;;;;;;;8838598;40;10687;-60
2021/07/21 08:13:35;;;;;;;;;24.25;23.50;;;;;;;;8831922;40;10555;-60
2021/07/21 08:19:39;;;;;;;;;28.75;28.75;;;;;;;;8836684;40;10694;-60
2021/07/21 08:25:44;;;;;;;;;23.50;22.75;;;;;;;;8838768;40;10533;-60
2021/07/21 08:31:46;;;;;;;;;35.75;31.75;;;;;;;;8837976;40;10524;-61
2021/07/21 08:37:49;;;;;;;;;21.00;20.50;;;;;;;;8838407;40;10676;-59
2021/07/21 08:43:52;;;;;;;;;22.50;20.75;;;;;;;;8837575;40;10566;-60
2021/07/21 08:49:56;;;;;;;;;22.00;22.00;;;;;;;;8838943;40;10930;-61
2021/07/21 08:55:58;;;;;;;;;21.25;19.25;;;;;;;;8829482;40;10501;-59
2021/07/21 09:02:00;;;;;;;;;23.50;22.00;;;;;;;;8840431;40;10566;-60
2021/07/21 09:08:04;;;;;;;;;10.00;6.50;;;;;;;;8842577;40;10484;-59
2021/07/21 09:14:07;;;;;;;;;18.00;18.00;;;;;;;;8826918;40;10468;-60
2021/07/21 09:20:16;;;;;;;;;22.00;21.50;;;;;;;;8818448;40;10498;-60
2021/07/21 09:26:22;;;;;;;;;23.25;22.00;;;;;;;;8838205;40;10495;-60
2021/07/21 09:32:24;;;;;;;;;20.00;19.00;;;;;;;;8865171;40;10474;-61
2021/07/21 09:38:29;;;;;;;;;18.25;17.00;;;;;;;;8849589;40;10722;-59
2021/07/21 09:44:40;;;;;;;;;24.50;23.00;;;;;;;;8834829;40;11069;-60
2021/07/21 09:50:44;;;;;;;;;23.25;20.00;;;;;;;;8833132;40;10515;-59
2021/07/21 09:56:50;;;;;;;;;24.50;24.00;;;;;;;;8843202;40;10965;-59
2021/07/21 10:03:30;;;;;;;;;21.00;18.00;;;;;;;;8833727;40;11017;-62
2021/07/21 10:09:32;;;;;;;;;17.25;15.50;;;;;;;;8801666;40;10533;-59
2021/07/21 10:15:34;;;;;;;;;17.00;16.75;;;;;;;;8838068;40;10483;-59
2021/07/21 10:21:39;;;;;;;;;19.00;19.00;;;;;;;;8841009;40;11120;-60
2021/07/21 10:27:41;;;;;;;;;21.50;20.25;;;;;;;;8845004;40;10526;-59
2021/07/21 10:33:44;;;;;;;;;16.00;15.75;;;;;;;;8843699;40;11166;-60
2021/07/21 10:39:52;;;;;;;;;18.75;18.75;;;;;;;;8842284;40;10681;-59
2021/07/21 10:45:54;;;;;;;;;19.00;18.50;;;;;;;;8832966;40;10755;-59
2021/07/21 11:05:05;;;;;;;;;16.75;16.75;;;;;;;;8769938;40;11282;-60
2021/07/21 11:11:19;;;;;;;;;12.75;11.75;;;;;;;;8815308;40;10324;-59
2021/07/21 11:17:21;;;;;;;;;14.50;12.75;;;;;;;;8811643;40;10481;-60
2021/07/21 11:23:42;;;;;;;;;11.00;11.00;;;;;;;;8815315;40;11288;-59
2021/07/21 11:29:46;;;;;;;;;13.50;13.50;;;;;;;;8826162;40;11022;-60
2021/07/21 11:35:50;;;;;;;;;11.50;11.50;;;;;;;;8840833;40;10392;-61
2021/07/21 11:41:54;;;;;;;;;14.50;13.25;;;;;;;;8842206;40;10421;-59
2021/07/21 11:48:00;;;;;;;;;9.75;9.75;;;;;;;;8840922;40;10387;-59
2021/07/21 11:54:06;;;;;;;;;16.00;15.00;;;;;;;;8840758;40;10494;-59
2021/07/21 12:00:10;;;;;;;;;13.75;11.00;;;;;;;;8841323;40;10396;-60
2021/07/21 12:06:23;;;;;;;;;12.25;12.00;;;;;;;;8859866;40;10521;-59
2021/07/21 12:12:26;;;;;;;;;17.25;13.25;;;;;;;;8855765;40;10461;-59
2021/07/21 12:18:28;;;;;;;;;16.00;16.00;;;;;;;;8832518;40;10461;-60
2021/07/21 12:24:48;;;;;;;;;17.25;14.50;;;;;;;;8838098;40;10551;-59
2021/07/21 12:30:56;;;;;;;;;11.50;11.25;;;;;;;;8851968;40;10500;-59
2021/07/21 12:36:59;;;;;;;;;13.50;12.00;;;;;;;;8864021;40;10491;-59
2021/07/21 12:43:03;;;;;;;;;9.00;6.75;;;;;;;;8867927;40;10290;-60
2021/07/21 12:49:10;;;;;;;;;9.00;6.50;;;;;;;;8848203;40;10471;-61
2021/07/21 12:55:17;;;;;;;;;9.00;9.00;;;;;;;;8822673;40;10616;-59
2021/07/21 13:01:25;;;;;;;;;8.50;8.50;;;;;;;;8833194;40;10414;-58
2021/07/21 13:07:27;;;;;;;;;7.75;7.75;;;;;;;;8842062;40;10619;-58
2021/07/21 13:13:33;;;;;;;;;8.00;6.75;;;;;;;;8843886;40;10509;-59
2021/07/21 13:19:37;;;;;;;;;6.25;6.25;;;;;;;;8842097;40;10491;-59
2021/07/21 13:25:40;;;;;;;;;10.50;8.75;;;;;;;;8836209;40;10502;-59
2021/07/21 13:31:48;;;;;;;;;11.75;9.00;;;;;;;;8839269;40;10450;-59
2021/07/21 13:37:57;;;;;;;;;6.75;6.75;;;;;;;;8840987;40;11029;-59
2021/07/21 13:44:02;;;;;;;;;2.00;0.50;;;;;;;;8824736;40;10427;-58
2021/07/21 13:50:08;;;;;;;;;7.25;7.25;;;;;;;;8818225;40;10431;-59
2021/07/21 13:56:10;;;;;;;;;5.00;5.00;;;;;;;;8823439;40;10416;-61
2021/07/21 14:02:21;;;;;;;;;7.75;7.75;;;;;;;;8817002;40;10594;-61
2021/07/21 14:08:25;;;;;;;;;7.25;7.25;;;;;;;;8815015;40;10639;-61
2021/07/21 14:14:27;;;;;;;;;6.25;6.25;;;;;;;;8825848;40;10370;-61
2021/07/21 14:20:33;;;;;;;;;9.00;7.00;;;;;;;;8844032;40;10500;-62
2021/07/21 14:26:36;;;;;;;;;8.75;8.75;;;;;;;;8845803;40;10633;-61
2021/07/21 14:32:38;;;;;;;;;8.00;8.00;;;;;;;;8868824;40;10549;-62
2021/07/21 14:38:41;;;;;;;;;5.50;4.50;;;;;;;;8870373;40;10293;-61
2021/07/21 14:44:43;;;;;;;;;7.50;7.00;;;;;;;;8870857;40;10322;-61
2021/07/21 14:50:49;;;;;;;;;9.25;8.50;;;;;;;;8869698;40;10345;-62
2021/07/21 14:56:51;;;;;;;;;6.25;6.25;;;;;;;;8861396;40;10512;-62
2021/07/21 15:02:55;;;;;;;;;7.25;7.25;;;;;;;;8859007;40;10890;-61
2021/07/21 15:09:02;;;;;;;;;10.75;8.00;;;;;;;;8869948;40;10629;-61
2021/07/21 15:15:06;;;;;;;;;10.50;6.25;;;;;;;;8847917;40;10431;-61
2021/07/21 15:21:09;;;;;;;;;10.25;9.25;;;;;;;;8844694;40;10433;-61
2021/07/21 15:27:15;;;;;;;;;9.00;9.00;;;;;;;;8845901;40;11572;-61
2021/07/21 15:33:17;;;;;;;;;9.75;8.75;;;;;;;;8869340;40;10504;-61
2021/07/21 15:39:21;;;;;;;;;10.00;9.00;;;;;;;;8870311;40;10644;-61
2021/07/21 15:45:24;;;;;;;;;9.00;9.00;;;;;;;;8869536;40;10366;-61
2021/07/21 15:51:26;;;;;;;;;7.25;7.25;;;;;;;;8868840;40;10339;-61
2021/07/21 15:57:28;;;;;;;;;7.25;7.25;;;;;;;;8868834;40;10328;-61
2021/07/21 16:03:30;;;;;;;;;9.25;9.25;;;;;;;;8861229;40;10709;-61
2021/07/21 16:09:33;;;;;;;;;9.75;8.25;;;;;;;;8843486;40;10565;-61
2021/07/21 16:15:36;;;;;;;;;11.25;11.25;;;;;;;;8844214;40;10461;-60
2021/07/21 16:21:40;;;;;;;;;16.75;14.25;;;;;;;;8834957;40;10596;-62
2021/07/21 16:27:42;;;;;;;;;12.00;10.25;;;;;;;;8843808;40;10463;-61
2021/07/21 16:33:44;;;;;;;;;10.00;10.00;;;;;;;;8843079;40;10710;-61
2021/07/21 16:39:46;;;;;;;;;9.25;9.25;;;;;;;;8843368;40;11079;-61
2021/07/21 16:45:49;;;;;;;;;8.50;8.00;;;;;;;;8843071;40;10366;-61
2021/07/21 16:51:51;;;;;;;;;9.00;9.00;;;;;;;;8843300;40;10386;-61
2021/07/21 16:57:54;;;;;;;;;9.50;9.50;;;;;;;;8843567;40;10360;-61
2021/07/21 17:03:56;;;;;;;;;11.50;11.50;;;;;;;;8842959;40;10482;-61
2021/07/21 17:09:59;;;;;;;;;9.75;9.50;;;;;;;;8844092;40;10627;-61
2021/07/21 17:16:01;;;;;;;;;9.00;9.00;;;;;;;;8833164;40;10348;-62
2021/07/21 17:22:04;;;;;;;;;7.50;6.50;;;;;;;;8833245;40;10566;-61
2021/07/21 17:28:10;;;;;;;;;7.75;7.75;;;;;;;;8845146;40;10401;-61
2021/07/21 17:34:12;;;;;;;;;8.50;8.50;;;;;;;;8846251;40;10531;-60
2021/07/21 17:40:15;;;;;;;;;8.25;8.25;;;;;;;;8846558;40;11045;-61
2021/07/21 17:46:17;;;;;;;;;7.50;6.75;;;;;;;;8845533;40;10428;-61
2021/07/21 17:52:19;;;;;;;;;10.00;9.00;;;;;;;;8846109;40;10464;-60
2021/07/21 17:58:22;;;;;;;;;9.50;8.75;;;;;;;;8838084;40;10869;-61
2021/07/21 18:04:24;;;;;;;;;10.00;8.00;;;;;;;;8847551;40;10485;-61
2021/07/21 18:10:31;;;;;;;;;8.50;8.50;;;;;;;;8846854;40;10712;-61
2021/07/21 18:16:33;;;;;;;;;9.50;8.00;;;;;;;;8836899;40;10484;-61
2021/07/21 18:22:36;;;;;;;;;0.25;0.25;;;;;;;;8846273;40;10482;-60
2021/07/21 18:28:38;;;;;;;;;6.50;6.50;;;;;;;;8847626;40;10552;-61
2021/07/21 18:34:41;;;;;;;;;6.00;4.25;;;;;;;;8846864;40;10463;-61
2021/07/21 18:40:44;;;;;;;;;7.50;7.00;;;;;;;;8846663;40;10722;-61
2021/07/21 18:46:46;;;;;;;;;7.00;7.00;;;;;;;;8845495;40;10781;-61
2021/07/21 18:52:51;;;;;;;;;3.25;3.25;;;;;;;;8847163;40;11185;-61
2021/07/21 18:58:53;;;;;;;;;7.25;6.50;;;;;;;;8846514;40;10412;-61
2021/07/21 19:04:55;;;;;;;;;7.25;5.75;;;;;;;;8845489;40;10689;-61
2021/07/21 19:10:57;;;;;;;;;7.75;7.25;;;;;;;;8845667;40;10595;-61
2021/07/21 19:16:59;;;;;;;;;6.25;6.00;;;;;;;;8845253;40;10682;-60
2021/07/21 19:23:02;;;;;;;;;11.25;8.25;;;;;;;;8845753;40;10592;-60
2021/07/21 19:29:04;;;;;;;;;10.50;10.50;;;;;;;;8835589;40;10828;-61
2021/07/21 19:35:07;;;;;;;;;10.50;9.00;;;;;;;;8844777;40;11247;-60
2021/07/21 19:41:09;;;;;;;;;10.00;10.00;;;;;;;;8845065;40;10688;-61
2021/07/21 19:47:16;;;;;;;;;13.25;12.00;;;;;;;;8844142;40;10801;-60
2021/07/21 19:53:18;;;;;;;;;12.00;9.00;;;;;;;;8846105;40;10935;-60
2021/07/21 19:59:20;;;;;;;;;14.00;12.50;;;;;;;;8845022;40;11142;-61
2021/07/21 20:05:22;;;;;;;;;10.00;9.50;;;;;;;;8843682;40;10830;-61
2021/07/21 20:11:25;;;;;;;;;7.75;7.75;;;;;;;;8845272;40;10644;-60
2021/07/21 20:17:28;;;;;;;;;7.00;6.25;;;;;;;;8844210;40;10591;-61
2021/07/21 20:23:31;;;;;;;;;10.25;8.00;;;;;;;;8835733;40;10940;-61
2021/07/21 20:29:51;;;;;;;;;6.00;5.00;;;;;;;;8844427;40;11130;-62
2021/07/21 20:35:54;;;;;;;;;5.00;5.00;;;;;;;;8844026;40;11112;-61
2021/07/21 20:41:56;;;;;;;;;7.50;3.75;;;;;;;;8844200;40;10572;-61
2021/07/21 20:47:58;;;;;;;;;8.00;8.00;;;;;;;;8843421;40;10728;-61
2021/07/21 20:54:02;;;;;;;;;5.00;4.50;;;;;;;;8844194;40;10916;-60
2021/07/21 21:00:09;;;;;;;;;4.75;4.75;;;;;;;;8834890;40;10495;-61
2021/07/21 21:06:11;;;;;;;;;4.50;4.00;;;;;;;;8847597;40;10655;-60
2021/07/21 21:12:16;;;;;;;;;6.00;6.00;;;;;;;;8848305;40;10659;-61
2021/07/21 21:18:19;;;;;;;;;4.25;3.00;;;;;;;;8846596;40;10722;-60
2021/07/21 21:24:41;;;;;;;;;3.25;3.25;;;;;;;;8839768;40;10657;-60
2021/07/21 21:30:48;;;;;;;;;5.25;3.75;;;;;;;;8846942;40;10629;-60
2021/07/21 21:36:50;;;;;;;;;3.00;3.00;;;;;;;;8846834;40;10785;-61
2021/07/21 21:42:52;;;;;;;;;5.75;5.25;;;;;;;;8847110;40;10651;-61
2021/07/21 21:48:54;;;;;;;;;4.50;4.50;;;;;;;;8846513;40;10679;-63
2021/07/21 21:54:56;;;;;;;;;4.00;3.50;;;;;;;;8847755;40;10647;-60
2021/07/21 22:00:59;;;;;;;;;6.25;6.25;;;;;;;;8845978;40;10676;-61
2021/07/21 22:07:02;;;;;;;;;4.00;3.00;;;;;;;;8846483;40;10825;-61
2021/07/21 22:13:05;;;;;;;;;7.00;5.00;;;;;;;;8846663;40;11437;-61
2021/07/21 22:19:10;;;;;;;;;3.00;3.00;;;;;;;;8846120;40;10594;-61
2021/07/21 22:25:13;;;;;;;;;6.75;6.25;;;;;;;;8847154;40;10953;-60
2021/07/21 22:31:17;;;;;;;;;3.00;2.00;;;;;;;;8846078;40;11133;-61
2021/07/21 22:37:20;;;;;;;;;6.00;4.50;;;;;;;;8845710;40;10483;-60
2021/07/21 22:43:24;;;;;;;;;5.25;4.25;;;;;;;;8846170;40;10873;-60
2021/07/21 22:49:26;;;;;;;;;4.50;4.50;;;;;;;;8845524;40;10685;-62
2021/07/21 22:55:29;;;;;;;;;9.50;8.00;;;;;;;;8846211;40;10769;-60
2021/07/21 23:02:05;;;;;;;;;12.75;12.00;;;;;;;;8845712;40;10740;-61
2021/07/21 23:08:45;;;;;;;;;10.25;10.25;;;;;;;;8846853;40;10981;-62
2021/07/21 23:15:18;;;;;;;;;11.00;11.00;;;;;;;;8846382;40;10879;-60
2021/07/21 23:21:22;;;;;;;;;8.25;8.25;;;;;;;;8845849;40;10747;-60
2021/07/21 23:27:25;;;;;;;;;10.25;10.25;;;;;;;;8844160;40;11496;-60
2021/07/21 23:33:29;;;;;;;;;9.33;9.33;;;;;;;;8845116;40;11109;-60
2021/07/21 23:39:32;;;;;;;;;5.75;5.75;;;;;;;;8348539;40;20001798;-60
2021/07/21 23:45:34;;;;;;;;;10.25;9.25;;;;;;;;8870834;40;10713;-60
2021/07/21 23:51:36;;;;;;;;;9.50;7.75;;;;;;;;8870461;40;10601;-60
2021/07/21 23:57:38;;;;;;;;;5.25;5.25;;;;;;;;8869470;40;10734;-61
